LSMP 200020Z AUTO 20003KT 160V240 9999NDV FEW140 16/13 Q1024 RMK LSMP 192320Z AUTO VRB02KT 9999NDV NCD 17/13 Q1024 RMK LSMP 192220Z AUTO 00000KT 9999NDV SCT120 19/14 Q1024 RMK LSMP 192150Z AUTO 00000KT 9999NDV SCT130 19/14 Q1024 RMK LSMP 192120Z AUTO 21002KT 9999NDV BKN130 20/14 Q1024 RMK LSMP 192050Z AUTO 24004KT 9999NDV FEW130 19/14 Q1023 RMK LSMP 192020Z AUTO 21003KT 9999NDV SCT130 21/14 Q1023 RMK LSMP 191950Z AUTO 25004KT 9999NDV SCT120 21/14 Q1023 RMK LSMP 191920Z AUTO 23003KT 9999NDV BKN130 23/14 Q1023 RMK LSMP 191850Z AUTO 27005KT 9999NDV SCT130 24/14 Q1023 RMK LSMP 191820Z AUTO 29005KT 260V320 9999NDV NCD 25/14 Q1022 RMK LSMP 191750Z AUTO 29006KT 250V330 9999NDV NCD 26/14 Q1022 RMK LSMP 191720Z 22006KT 180V250 CAVOK 27/13 Q1022 RMK BLU LSMP 191650Z 22008KT 190V250 CAVOK 27/14 Q1022 RMK BLU LSMP 191620Z 22012KT CAVOK 26/12 Q1022 RMK BLU LSMP 191550Z AUTO 21015KT 9999NDV FEW110 27/13 Q1022 RMK LSMP 191520Z AUTO 23012KT 9999NDV FEW120 27/13 Q1022 RMK LSMP 191450Z 28009KT 240V320 9999 FEW065 26/14 Q1022 RMK BLU+ LSMP 191420Z 24009KT 9999 -SHRA TS SCT025CB 26/13 Q1022 RMK BLU+ LSMP 191350Z 24013KT CAVOK 28/11 Q1022 RMK BLU LSMP 191320Z AUTO 23014KT 9999NDV FEW110 29/11 Q1022 RMK LSMP 191250Z 23014KT CAVOK 29/11 Q1022 RMK BLU LSMP 191220Z 23014KT CAVOK 28/10 Q1022 RMK BLU LSMP 191150Z 25013KT 210V280 CAVOK 29/10 Q1022 RMK BLU LSMP 191120Z AUTO 24013KT 210V280 9999NDV NCD 29/11 Q1023 RMK LSMP 191050Z AUTO 26010KT 200V300 9999NDV NCD 27/12 Q1023 RMK LSMP 191020Z AUTO VRB02KT 9999NDV NCD 26/16 Q1023 RMK LSMP 190950Z AUTO VRB02KT 9999NDV NCD 25/16 Q1023 RMK LSMP 190920Z VRB02KT CAVOK 23/15 Q1023 RMK BLU LSMP 190850Z VRB02KT CAVOK 23/15 Q1024 RMK BLU LSMP 190820Z VRB01KT CAVOK 22/15 Q1024 RMK BLU LSMP 190750Z VRB02KT CAVOK 22/15 Q1024 RMK BLU LSMP 190720Z VRB01KT CAVOK 20/14 Q1024 RMK BLU LSMP 190650Z AUTO 00000KT 9999NDV NCD 19/14 Q1024 RMK LSMP 190620Z AUTO 00000KT 9999NDV NCD 18/14 Q1024 RMK LSMP 190550Z AUTO VRB02KT 9999NDV NCD 17/13 Q1023 RMK LSMP 190520Z AUTO 00000KT 9999NDV NCD 15/12 Q1023 RMK LSMP 190450Z AUTO VRB02KT 9999NDV FEW240 14/12 Q1023 RMK LSMP 190420Z AUTO VRB02KT 9999NDV NCD 14/11 Q1022 RMK LSMP 190350Z AUTO 00000KT 9999NDV NCD 14/12 Q1022 RMK LSMP 190320Z AUTO 19001KT 9999NDV NCD 14/12 Q1022 RMK LSMP 190250Z AUTO 00000KT 9999NDV NCD 14/12 Q1022 RMK LSMP 190150Z AUTO VRB01KT 9999NDV NCD 15/12 Q1022 RMK LSMP 190120Z AUTO 20003KT 9999NDV NCD 15/13 Q1022 RMK LSMP 190050Z AUTO 21004KT 170V230 9999NDV NCD 15/12 Q1021 RMK LSMP 190020Z AUTO 21003KT 9999NDV NCD 15/13 Q1021 RMK LSMP 182350Z AUTO 20004KT 9999NDV NCD 16/13 Q1021 RMK LSMP 182320Z AUTO 22003KT 9999NDV NCD 16/13 Q1021 RMK LSMP 182250Z AUTO 21004KT 9999NDV NCD 17/14 Q1021 RMK LSMP 182220Z AUTO 21003KT 9999NDV NCD 17/14 Q1021 RMK LSMP 182150Z AUTO 20003KT 9999NDV NCD 18/14 Q1021 RMK LSMP 182120Z AUTO 21003KT 9999NDV NCD 18/14 Q1021 RMK LSMP 182050Z AUTO 23002KT 9999NDV NCD 19/14 Q1021 RMK LSMP 182020Z AUTO 00000KT 9999NDV NCD 21/13 Q1020 RMK LSMP 181950Z AUTO 35001KT 9999NDV NCD 21/13 Q1020 RMK LSMP 181920Z AUTO 01002KT 9999NDV NCD 23/13 Q1020 RMK LSMP 181850Z AUTO 03003KT 9999NDV NCD 23/14 Q1019 RMK LSMP 181820Z AUTO 04004KT 9999NDV NCD 24/15 Q1019 RMK LSMP 181750Z AUTO 05005KT 9999NDV NCD 25/14 Q1019 RMK LSMP 181650Z AUTO 04005KT 010V070 9999NDV NCD 27/13 Q1019 RMK LSMP 181620Z AUTO 04005KT 010V080 9999NDV NCD 28/13 Q1019 RMK LSMP 181550Z AUTO 04005KT 010V070 9999NDV NCD 28/12 Q1019 RMK LSMP 181520Z AUTO 02005KT 330V060 9999NDV NCD 28/11 Q1020 RMK LSMP 181450Z AUTO 04006KT 360V080 9999NDV NCD 28/11 Q1020 RMK LSMP 181420Z 06005KT 010V100 CAVOK 28/12 Q1020 RMK BLU LSMP 181350Z AUTO 08004KT 350V120 9999NDV NCD 27/11 Q1020 RMK LSMP 181320Z AUTO 06005KT 010V180 9999NDV NCD 27/12 Q1021 RMK LSMP 181250Z AUTO 07006KT 030V120 9999NDV NCD 27/14 Q1021 RMK

METAR Messwerte "PAYERNE (MIL/AUT" LSMP

Zurück zur Übersicht

Ortsname
Ländercode / m ü. NN
Zeit Temperatur Taupunkt Rel.
Luftfeuchte
Luftdruck:
Altimeter
NN
Station
Wind in Beaufort
(Knoten)
Sichtweite
(Meter)
Wolken
(Meter über Grund)
Wettererscheinung
PAYERNE (MIL/AUT
CH 490
Fr 20.05. 02:20161382 %1024
1024
966
SSW 2 (3)
SSO - WSW
 Leicht bewölkt (4300) 
PAYERNE (MIL/AUT
CH 490
Fr 20.05. 01:20171377 %1024
1024
966
Uml 1 (2)   
PAYERNE (MIL/AUT
CH 490
Fr 20.05. 00:20191473 %1024
1023
966
Windstill Wolkig (3700) 
PAYERNE (MIL/AUT
CH 490
Do 19.05. 23:50191473 %1024
1023
966
Windstill Wolkig (4000) 
PAYERNE (MIL/AUT
CH 490
Do 19.05. 23:20201468 %1024
1023
966
SSW 1 (2) Stark bewölkt (4000) 
PAYERNE (MIL/AUT
CH 490
Do 19.05. 22:50191473 %1023
1022
965
WSW 2 (4) Leicht bewölkt (4000) 
PAYERNE (MIL/AUT
CH 490
Do 19.05. 22:20211464 %1023
1022
965
SSW 2 (3) Wolkig (4000) 
PAYERNE (MIL/AUT
CH 490
Do 19.05. 21:50211464 %1023
1022
965
WSW 2 (4) Wolkig (3700) 
PAYERNE (MIL/AUT
CH 490
Do 19.05. 21:20231457 %1023
1021
965
SW 2 (3) Stark bewölkt (4000) 
PAYERNE (MIL/AUT
CH 490
Do 19.05. 20:50241454 %1023
1021
965
W 2 (5) Wolkig (4000) 
PAYERNE (MIL/AUT
CH 490
Do 19.05. 20:20251450 %1022
1020
964
WNW 2 (5)
W - NW
   
PAYERNE (MIL/AUT
CH 490
Do 19.05. 19:50261448 %1022
1020
964
WNW 2 (6)
WSW - NNW
   
PAYERNE (MIL/AUT
CH 490
Do 19.05. 19:20271342 %1022
1020
964
SW 2 (6)
S - WSW
>= 10000Nicht signifikant 
PAYERNE (MIL/AUT
CH 490
Do 19.05. 18:50271445 %1022
1020
964
SW 3 (8)
S - WSW
>= 10000Nicht signifikant 
PAYERNE (MIL/AUT
CH 490
Do 19.05. 18:20261242 %1022
1020
964
SW 4 (12)>= 10000Nicht signifikant 
PAYERNE (MIL/AUT
CH 490
Do 19.05. 17:50271342 %1022
1020
964
SSW 4 (15) Leicht bewölkt (3400) 
PAYERNE (MIL/AUT
CH 490
Do 19.05. 17:20271342 %1022
1020
964
SW 4 (12) Leicht bewölkt (3700) 
PAYERNE (MIL/AUT
CH 490
Do 19.05. 16:50261448 %1022
1020
964
W 3 (9)
WSW - NW
>= 10000Leicht bewölkt (2000) 
PAYERNE (MIL/AUT
CH 490
Do 19.05. 16:20261345 %1022
1020
964
WSW 3 (9)>= 10000Wolkig Cb (760)Regen-Schauer (schwach)
PAYERNE (MIL/AUT
CH 490
Do 19.05. 15:50281135 %1022
1020
964
WSW 4 (13)>= 10000Nicht signifikant 
PAYERNE (MIL/AUT
CH 490
Do 19.05. 15:20291133 %1022
1019
964
SW 4 (14) Leicht bewölkt (3400) 
PAYERNE (MIL/AUT
CH 490
Do 19.05. 14:50291133 %1022
1019
964
SW 4 (14)>= 10000Nicht signifikant 
PAYERNE (MIL/AUT
CH 490
Do 19.05. 14:20281032 %1022
1020
964
SW 4 (14)>= 10000Nicht signifikant 
PAYERNE (MIL/AUT
CH 490
Do 19.05. 13:50291031 %1022
1019
964
WSW 4 (13)
SSW - W
>= 10000Nicht signifikant 
PAYERNE (MIL/AUT
CH 490
Do 19.05. 13:20291133 %1023
1020
965
WSW 4 (13)
SSW - W
   
PAYERNE (MIL/AUT
CH 490
Do 19.05. 12:50271239 %1023
1021
965
W 3 (10)
SSW - WNW
   
PAYERNE (MIL/AUT
CH 490
Do 19.05. 12:20261654 %1023
1021
965
Uml 1 (2)   
PAYERNE (MIL/AUT
CH 490
Do 19.05. 11:50251657 %1023
1021
965
Uml 1 (2)   
PAYERNE (MIL/AUT
CH 490
Do 19.05. 11:20231561 %1023
1021
965
Uml 1 (2)>= 10000Nicht signifikant 
PAYERNE (MIL/AUT
CH 490
Do 19.05. 10:50231561 %1024
1023
966
Uml 1 (2)>= 10000Nicht signifikant 
PAYERNE (MIL/AUT
CH 490
Do 19.05. 10:20221565 %1024
1023
966
Uml 1 (1)>= 10000Nicht signifikant 
PAYERNE (MIL/AUT
CH 490
Do 19.05. 09:50221565 %1024
1023
966
Uml 1 (2)>= 10000Nicht signifikant 
PAYERNE (MIL/AUT
CH 490
Do 19.05. 09:20201468 %1024
1023
966
Uml 1 (1)>= 10000Nicht signifikant 
PAYERNE (MIL/AUT
CH 490
Do 19.05. 08:50191473 %1024
1023
966
Windstill   
PAYERNE (MIL/AUT
CH 490
Do 19.05. 08:20181477 %1024
1024
966
Windstill   
PAYERNE (MIL/AUT
CH 490
Do 19.05. 07:50171377 %1023
1023
965
Uml 1 (2)   
PAYERNE (MIL/AUT
CH 490
Do 19.05. 07:20151282 %1023
1023
965
Windstill   
PAYERNE (MIL/AUT
CH 490
Do 19.05. 06:50141288 %1023
1023
965
Uml 1 (2) Leicht bewölkt (7300) 
PAYERNE (MIL/AUT
CH 490
Do 19.05. 06:20141182 %1022
1022
964
Uml 1 (2)   
PAYERNE (MIL/AUT
CH 490
Do 19.05. 05:50141288 %1022
1022
964
Windstill   
PAYERNE (MIL/AUT
CH 490
Do 19.05. 05:20141288 %1022
1022
964
S 1 (1)   
PAYERNE (MIL/AUT
CH 490
Do 19.05. 04:50141288 %1022
1022
964
Windstill   
PAYERNE (MIL/AUT
CH 490
Do 19.05. 03:50151282 %1022
1022
964
Uml 1 (1)   
PAYERNE (MIL/AUT
CH 490
Do 19.05. 03:20151388 %1022
1022
964
SSW 2 (3)   
PAYERNE (MIL/AUT
CH 490
Do 19.05. 02:50151282 %1021
1021
963
SSW 2 (4)
S - SW
   
PAYERNE (MIL/AUT
CH 490
Do 19.05. 02:20151388 %1021
1021
963
SSW 2 (3)   
PAYERNE (MIL/AUT
CH 490
Do 19.05. 01:50161382 %1021
1021
963
SSW 2 (4)   
PAYERNE (MIL/AUT
CH 490
Do 19.05. 01:20161382 %1021
1021
963
SW 2 (3)   
PAYERNE (MIL/AUT
CH 490
Do 19.05. 00:50171482 %1021
1021
963
SSW 2 (4)   
PAYERNE (MIL/AUT
CH 490
Do 19.05. 00:20171482 %1021
1021
963
SSW 2 (3)   
PAYERNE (MIL/AUT
CH 490
Mi 18.05. 23:50181477 %1021
1020
963
SSW 2 (3)   
PAYERNE (MIL/AUT
CH 490
Mi 18.05. 23:20181477 %1021
1020
963
SSW 2 (3)   
PAYERNE (MIL/AUT
CH 490
Mi 18.05. 22:50191473 %1021
1020
963
SW 1 (2)   
PAYERNE (MIL/AUT
CH 490
Mi 18.05. 22:20211360 %1020
1019
962
Windstill   
PAYERNE (MIL/AUT
CH 490
Mi 18.05. 21:50211360 %1020
1019
962
N 1 (1)   
PAYERNE (MIL/AUT
CH 490
Mi 18.05. 21:20231353 %1020
1018
962
N 1 (2)   
PAYERNE (MIL/AUT
CH 490
Mi 18.05. 20:50231457 %1019
1017
961
NNO 2 (3)   
PAYERNE (MIL/AUT
CH 490
Mi 18.05. 20:20241557 %1019
1017
961
NO 2 (4)   
PAYERNE (MIL/AUT
CH 490
Mi 18.05. 19:50251450 %1019
1017
961
NO 2 (5)   
PAYERNE (MIL/AUT
CH 490
Mi 18.05. 18:50271342 %1019
1017
961
NO 2 (5)
N - ONO
   
PAYERNE (MIL/AUT
CH 490
Mi 18.05. 18:20281340 %1019
1016
961
NO 2 (5)
N - O
   
PAYERNE (MIL/AUT
CH 490
Mi 18.05. 17:50281237 %1019
1016
961
NO 2 (5)
N - ONO
   
PAYERNE (MIL/AUT
CH 490
Mi 18.05. 17:20281135 %1020
1017
962
NNO 2 (5)
NNW - ONO
   
PAYERNE (MIL/AUT
CH 490
Mi 18.05. 16:50281135 %1020
1017
962
NO 2 (6)
N - O
   
PAYERNE (MIL/AUT
CH 490
Mi 18.05. 16:20281237 %1020
1017
962
ONO 2 (5)
N - O
>= 10000Nicht signifikant 
PAYERNE (MIL/AUT
CH 490
Mi 18.05. 15:50271137 %1020
1018
962
O 2 (4)
N - OSO
   
PAYERNE (MIL/AUT
CH 490
Mi 18.05. 15:20271239 %1021
1019
963
ONO 2 (5)
N - S
   
PAYERNE (MIL/AUT
CH 490
Mi 18.05. 14:50271445 %1021
1019
963
ONO 2 (6)
NNO - OSO
   

Altimeter: Einstellung am Altimeter (Höhenmesser), die Höhe 0 muss auf diesen Luftdruckwert zeigen, damit das Gerät die Stationshöhe richtig anzeigt.

NN: Luftdruck reduziert auf "Normal Null", auf Meereshöhe, dieser von der Temperatur abhängige Wert wird bisweilen unkorrekt einfach als "Luftdruck" bezeichnet. Eigentlich nur eine fiktive Größe, die es erlaubt, Stationen auf unterschiedlichen Höhen miteinander zu vergleichen.

Station: Realer Luftdruck an der Station.